Terminal Aerodrome Forecast
Issued by NWS Wilmington, NC

Home | Current Version | Previous Version | Text Only | Print | Product List | Glossary On
Versions: 1 2 3 4 5 6 7 8 9 10 11 12 13 14 15 16
481
FTUS42 KILM 281720
TAFFLO
TAF
KFLO 281720Z 2818/2918 04008KT P6SM SCT035 SCT050 SCT120
     FM290000 04003KT P6SM SCT040 BKN120
     FM290900 03003KT 4SM BR SCT010 BKN120
     FM291300 05006KT P6SM FEW020 SCT035=

USA.gov is the U.S. government's official web portal to all federal, state and local government web resources and services.